CheckWX is a tool to help pilots better visualize weather data.  It is not intended as a substitute for an official pre-flight weather briefing.

16:04:29 UTC

KDPA METAR
Dupage Airport
Chicago/West Chicago, Illinois, USA
Current

12 mins ago

KDPA 071552Z 19006KT 10SM OVC100 M01/M03 A3037 RMK AO2 SLP295 T10061033
Observed
Dec-7 @ 15:52 UTC
Wind
  • 190° at 6 KTS
Visibility
10 SM
Flight Rules
VFR
Cloud Levels
  • Overcast at 10,000' AGL
Temperature
-1°C / 30°F
Dewpoint
-3°C / 27°F
Humidity
86%
Altimeter
30.37" Hg
Pressure
1028.42 hPa
Previous

1 hour ago

KDPA 071452Z AUTO 20007KT 10SM OVC100 M01/M04 A3036 RMK AO2 SLP291 T10111039 53004
Observed
Dec-7 @ 14:52 UTC
Wind
  • 200° at 7 KTS
Visibility
10 SM
Flight Rules
VFR
Cloud Levels
  • Overcast at 10,000' AGL
Temperature
-1°C / 30°F
Dewpoint
-4°C / 25°F
Humidity
80%
Altimeter
30.36" Hg
Pressure
1028.12 hPa
Previous

2 hours ago

KDPA 071352Z 18006KT 10SM OVC100 M02/M04 A3035 RMK AO2 SLP289 T10221044
Observed
Dec-7 @ 13:52 UTC
Wind
  • 180° at 6 KTS
Visibility
10 SM
Flight Rules
VFR
Cloud Levels
  • Overcast at 10,000' AGL
Temperature
-2°C / 28°F
Dewpoint
-4°C / 25°F
Humidity
86%
Altimeter
30.35" Hg
Pressure
1027.82 hPa